Terminal Aerodrome Forecast
Issued by NWS

Home | Current Version | Previous Version | Graphics & Text | Print | Product List | Glossary On
Versions: 1 2 3 4 5 6 7 8 9 10 11 12 13 14 15 16
000
FTUS43 KICT 231450 AAB
TAFSLN
TAF AMD
KSLN 231450Z 2315/2412 18005KT 5SM -DZ FEW004 SCT008 OVC015
      TEMPO 2315/2317 3SM -DZ
     FM231800 34026G35KT 6SM -RA BKN025
     FM240000 33017G26KT P6SM SCT060 BKN100
     FM240400 29014KT P6SM FEW100 SCT250=

USA.gov is the U.S. government's official web portal to all federal, state and local government web resources and services.